EZY87KZ EGPH-EGKK
Flight info
| Callsign | EZY87KZ |
|---|---|
| Flight time | 1h 9m |
| Altitude | 33000 |
| Route | GOSAM P600 FENIK L612 NAVSO DCT KEPAD L151 DISIT |
| Aircraft | A20N/M-SDE2E3FGHIRWXY/LB1 |
Departure
| Time | 2026-04-24 14:04 |
|---|---|
| Airport | Edinburgh Airport (EGPH) |
Arrival
| Time | 2026-04-24 15:14 |
|---|---|
| Airport | London Gatwick Airport (EGKK) |
| Time | Latitude | Longitude | Altitude | Speed | Heading |
|---|---|---|---|---|---|
| 2026-04-24 13:37 | 55.94702 | -3.36601 | 105 ft | 0 kts | 89° |
| 2026-04-24 13:53 | 55.94702 | -3.36610 | 116 ft | 3 kts | 89° |
| 2026-04-24 13:53 | 55.94700 | -3.36656 | 114 ft | 4 kts | 81° |
| 2026-04-24 13:53 | 55.94695 | -3.36701 | 112 ft | 4 kts | 64° |
| 2026-04-24 13:53 | 55.94680 | -3.36734 | 112 ft | 3 kts | 7° |
| 2026-04-24 13:54 | 55.94671 | -3.36735 | 116 ft | 0 kts | 359° |
| 2026-04-24 13:58 | 55.94712 | -3.36736 | 116 ft | 12 kts | 359° |
| 2026-04-24 13:58 | 55.94789 | -3.36777 | 115 ft | 10 kts | 354° |
| 2026-04-24 13:59 | 55.94878 | -3.36787 | 116 ft | 14 kts | 338° |
| 2026-04-24 13:59 | 55.94922 | -3.36897 | 114 ft | 14 kts | 255° |
| 2026-04-24 13:59 | 55.94863 | -3.37082 | 114 ft | 20 kts | 238° |
| 2026-04-24 13:59 | 55.94786 | -3.37309 | 113 ft | 23 kts | 239° |
| 2026-04-24 14:00 | 55.94697 | -3.37572 | 115 ft | 28 kts | 239° |
| 2026-04-24 14:00 | 55.94590 | -3.37886 | 114 ft | 32 kts | 239° |
| 2026-04-24 14:00 | 55.94469 | -3.38242 | 114 ft | 36 kts | 239° |
| 2026-04-24 14:00 | 55.94354 | -3.38582 | 113 ft | 23 kts | 239° |
| 2026-04-24 14:01 | 55.94288 | -3.38776 | 114 ft | 3 kts | 239° |
| 2026-04-24 14:01 | 55.94284 | -3.38846 | 116 ft | 7 kts | 296° |
| 2026-04-24 14:01 | 55.94321 | -3.38903 | 113 ft | 0 kts | 329° |
| 2026-04-24 14:01 | 55.94325 | -3.38907 | 114 ft | 0 kts | 328° |
| 2026-04-24 14:02 | 55.94358 | -3.38943 | 113 ft | 13 kts | 328° |
| 2026-04-24 14:02 | 55.94410 | -3.38973 | 113 ft | 6 kts | 21° |
| 2026-04-24 14:02 | 55.94433 | -3.38919 | 114 ft | 0 kts | 58° |
| 2026-04-24 14:03 | 55.94434 | -3.38917 | 114 ft | 0 kts | 58° |
| 2026-04-24 14:04 | 55.94486 | -3.38765 | 111 ft | 53 kts | 59° |
| 2026-04-24 14:04 | 55.94825 | -3.37764 | 114 ft | 132 kts | 59° |
| 2026-04-24 14:04 | 55.95371 | -3.36159 | 536 ft | 157 kts | 58° |
| 2026-04-24 14:04 | 55.95954 | -3.34509 | 1407 ft | 159 kts | 58° |
| 2026-04-24 14:05 | 55.96607 | -3.32963 | 2295 ft | 164 kts | 42° |
| 2026-04-24 14:05 | 55.97563 | -3.31629 | 2986 ft | 183 kts | 33° |
| 2026-04-24 14:05 | 55.98659 | -3.30232 | 3680 ft | 208 kts | 35° |
| 2026-04-24 14:05 | 55.99855 | -3.28610 | 4573 ft | 231 kts | 31° |
| 2026-04-24 14:06 | 56.01402 | -3.27627 | 5442 ft | 255 kts | 4° |
| 2026-04-24 14:06 | 56.03198 | -3.28017 | 5823 ft | 265 kts | 338° |
| 2026-04-24 14:06 | 56.04717 | -3.29858 | 5979 ft | 266 kts | 310° |
| 2026-04-24 14:06 | 56.05586 | -3.32745 | 5995 ft | 266 kts | 283° |
| 2026-04-24 14:07 | 56.05600 | -3.35970 | 5988 ft | 265 kts | 256° |
| 2026-04-24 14:07 | 56.04745 | -3.38857 | 6077 ft | 271 kts | 230° |
| 2026-04-24 14:07 | 56.03483 | -3.41377 | 6285 ft | 270 kts | 231° |
| 2026-04-24 14:07 | 56.02421 | -3.44075 | 6493 ft | 271 kts | 241° |
| 2026-04-24 14:08 | 56.01596 | -3.47199 | 7221 ft | 273 kts | 249° |
| 2026-04-24 14:08 | 56.00989 | -3.50375 | 8463 ft | 273 kts | 253° |
| 2026-04-24 14:08 | 56.00462 | -3.53671 | 9315 ft | 278 kts | 256° |
| 2026-04-24 14:08 | 55.99975 | -3.57028 | 9814 ft | 280 kts | 257° |
| 2026-04-24 14:09 | 55.99497 | -3.60428 | 10091 ft | 282 kts | 257° |
| 2026-04-24 14:09 | 55.99011 | -3.63828 | 10246 ft | 283 kts | 257° |
| 2026-04-24 14:09 | 55.98522 | -3.67203 | 10320 ft | 283 kts | 256° |
| 2026-04-24 14:09 | 55.98017 | -3.70646 | 10379 ft | 294 kts | 256° |
| 2026-04-24 14:10 | 55.97712 | -3.72733 | 10489 ft | 309 kts | 256° |
| 2026-04-24 14:10 | 55.96950 | -3.77893 | 11559 ft | 332 kts | 256° |
| 2026-04-24 14:10 | 55.96357 | -3.81909 | 12805 ft | 338 kts | 256° |
| 2026-04-24 14:10 | 55.95749 | -3.86019 | 13992 ft | 344 kts | 256° |
| 2026-04-24 14:11 | 55.95127 | -3.90209 | 15056 ft | 351 kts | 255° |
| 2026-04-24 14:11 | 55.94495 | -3.94445 | 16089 ft | 358 kts | 255° |
| 2026-04-24 14:11 | 55.92464 | -4.02575 | 18114 ft | 371 kts | 230° |
| 2026-04-24 14:12 | 55.90597 | -4.05809 | 19065 ft | 377 kts | 219° |
| 2026-04-24 14:12 | 55.88482 | -4.08636 | 19972 ft | 382 kts | 215° |
| 2026-04-24 14:12 | 55.86257 | -4.11314 | 20870 ft | 388 kts | 214° |
| 2026-04-24 14:12 | 55.83992 | -4.13973 | 21766 ft | 393 kts | 214° |
| 2026-04-24 14:13 | 55.81700 | -4.16678 | 22622 ft | 398 kts | 214° |
| 2026-04-24 14:13 | 55.79379 | -4.19446 | 23494 ft | 404 kts | 214° |
| 2026-04-24 14:13 | 55.76991 | -4.22129 | 24248 ft | 410 kts | 207° |
| 2026-04-24 14:13 | 55.74355 | -4.23981 | 24929 ft | 415 kts | 198° |
| 2026-04-24 14:14 | 55.71505 | -4.25038 | 25589 ft | 421 kts | 184° |
| 2026-04-24 14:14 | 55.68566 | -4.24799 | 26277 ft | 425 kts | 169° |
| 2026-04-24 14:14 | 55.62994 | -4.21031 | 27578 ft | 434 kts | 152° |
| 2026-04-24 14:15 | 55.60370 | -4.18472 | 28202 ft | 438 kts | 149° |
| 2026-04-24 14:15 | 55.57707 | -4.15778 | 28796 ft | 443 kts | 149° |
| 2026-04-24 14:15 | 55.55014 | -4.13066 | 29375 ft | 448 kts | 149° |
| 2026-04-24 14:15 | 55.52283 | -4.10353 | 29918 ft | 452 kts | 150° |
| 2026-04-24 14:16 | 55.49521 | -4.07641 | 30445 ft | 457 kts | 150° |
| 2026-04-24 14:16 | 55.46726 | -4.04917 | 30938 ft | 461 kts | 150° |
| 2026-04-24 14:16 | 55.43908 | -4.02182 | 31450 ft | 464 kts | 150° |
| 2026-04-24 14:17 | 55.38249 | -3.96706 | 32708 ft | 463 kts | 150° |
| 2026-04-24 14:17 | 55.35425 | -3.93980 | 33125 ft | 461 kts | 150° |
| 2026-04-24 14:17 | 55.30697 | -3.89426 | 33284 ft | 459 kts | 150° |
| 2026-04-24 14:18 | 55.25121 | -3.84071 | 33283 ft | 460 kts | 150° |
| 2026-04-24 14:18 | 55.19261 | -3.79513 | 33291 ft | 461 kts | 161° |
| 2026-04-24 14:19 | 55.13166 | -3.75989 | 33292 ft | 461 kts | 161° |
| 2026-04-24 14:19 | 55.07069 | -3.72444 | 33297 ft | 462 kts | 161° |
| 2026-04-24 14:20 | 55.00994 | -3.68905 | 33304 ft | 463 kts | 161° |
| 2026-04-24 14:20 | 54.94875 | -3.65353 | 33308 ft | 464 kts | 161° |
| 2026-04-24 14:21 | 54.88750 | -3.61808 | 33310 ft | 464 kts | 161° |
| 2026-04-24 14:21 | 54.82693 | -3.58314 | 33311 ft | 464 kts | 161° |
| 2026-04-24 14:22 | 54.76592 | -3.54806 | 33307 ft | 464 kts | 161° |
| 2026-04-24 14:23 | 54.67359 | -3.49519 | 33304 ft | 465 kts | 161° |
| 2026-04-24 14:23 | 54.61869 | -3.46387 | 33306 ft | 465 kts | 161° |
| 2026-04-24 14:24 | 54.55754 | -3.42909 | 33306 ft | 466 kts | 161° |
| 2026-04-24 14:24 | 54.49580 | -3.39408 | 33303 ft | 466 kts | 161° |
| 2026-04-24 14:25 | 54.44447 | -3.36506 | 33301 ft | 466 kts | 161° |
| 2026-04-24 14:25 | 54.37268 | -3.32459 | 33304 ft | 467 kts | 161° |
| 2026-04-24 14:26 | 54.31261 | -3.29084 | 33302 ft | 468 kts | 161° |
| 2026-04-24 14:26 | 54.25062 | -3.25613 | 33304 ft | 468 kts | 161° |
| 2026-04-24 14:27 | 54.18891 | -3.22168 | 33306 ft | 469 kts | 161° |
| 2026-04-24 14:27 | 54.12673 | -3.18708 | 33309 ft | 470 kts | 161° |
| 2026-04-24 14:28 | 54.06444 | -3.15253 | 33306 ft | 471 kts | 161° |
| 2026-04-24 14:28 | 54.00219 | -3.11810 | 33302 ft | 471 kts | 161° |
| 2026-04-24 14:29 | 53.93991 | -3.08377 | 33298 ft | 472 kts | 161° |
| 2026-04-24 14:29 | 53.87836 | -3.04995 | 33296 ft | 472 kts | 162° |
| 2026-04-24 14:30 | 53.82742 | -3.02203 | 33295 ft | 473 kts | 162° |
| 2026-04-24 14:30 | 53.76382 | -2.98729 | 33295 ft | 473 kts | 162° |
| 2026-04-24 14:31 | 53.70110 | -2.95312 | 33296 ft | 473 kts | 162° |
| 2026-04-24 14:31 | 53.63938 | -2.91959 | 33321 ft | 473 kts | 162° |
| 2026-04-24 14:32 | 53.57636 | -2.88545 | 33294 ft | 474 kts | 163° |
| 2026-04-24 14:32 | 53.51384 | -2.85169 | 33295 ft | 474 kts | 163° |
| 2026-04-24 14:33 | 53.45088 | -2.81780 | 33296 ft | 474 kts | 163° |
| 2026-04-24 14:33 | 53.38797 | -2.78405 | 33298 ft | 474 kts | 163° |
| 2026-04-24 14:34 | 53.32534 | -2.75057 | 33295 ft | 475 kts | 164° |
| 2026-04-24 14:34 | 53.27447 | -2.72343 | 33294 ft | 475 kts | 164° |
| 2026-04-24 14:35 | 53.21148 | -2.68992 | 33295 ft | 475 kts | 164° |
| 2026-04-24 14:35 | 53.14834 | -2.65645 | 33293 ft | 475 kts | 165° |
| 2026-04-24 14:36 | 53.08536 | -2.62317 | 33296 ft | 475 kts | 165° |
| 2026-04-24 14:36 | 53.02267 | -2.59015 | 33289 ft | 475 kts | 165° |
| 2026-04-24 14:37 | 52.95963 | -2.55705 | 33290 ft | 475 kts | 165° |
| 2026-04-24 14:37 | 52.89952 | -2.52558 | 33290 ft | 475 kts | 165° |
| 2026-04-24 14:38 | 52.83630 | -2.49216 | 33291 ft | 476 kts | 163° |
| 2026-04-24 14:38 | 52.77715 | -2.44357 | 33295 ft | 481 kts | 149° |
| 2026-04-24 14:39 | 52.72151 | -2.38167 | 33300 ft | 481 kts | 148° |
| 2026-04-24 14:39 | 52.66743 | -2.32180 | 33296 ft | 481 kts | 148° |
| 2026-04-24 14:40 | 52.61155 | -2.26043 | 33296 ft | 481 kts | 149° |
| 2026-04-24 14:40 | 52.55565 | -2.19930 | 33300 ft | 481 kts | 149° |
| 2026-04-24 14:41 | 52.50029 | -2.13895 | 33306 ft | 480 kts | 149° |
| 2026-04-24 14:41 | 52.44456 | -2.07838 | 33306 ft | 479 kts | 149° |
| 2026-04-24 14:42 | 52.38901 | -2.01820 | 33304 ft | 478 kts | 149° |
| 2026-04-24 14:42 | 52.33355 | -1.95829 | 33301 ft | 476 kts | 150° |
| 2026-04-24 14:43 | 52.28116 | -1.90190 | 33293 ft | 475 kts | 150° |
| 2026-04-24 14:43 | 52.22738 | -1.84418 | 33293 ft | 474 kts | 150° |
| 2026-04-24 14:44 | 52.17246 | -1.78537 | 32965 ft | 469 kts | 150° |
| 2026-04-24 14:44 | 52.14548 | -1.75656 | 32175 ft | 470 kts | 150° |
| 2026-04-24 14:44 | 52.11793 | -1.72719 | 31011 ft | 476 kts | 150° |
| 2026-04-24 14:44 | 52.08993 | -1.69741 | 29527 ft | 485 kts | 150° |
| 2026-04-24 14:45 | 52.06185 | -1.66757 | 28082 ft | 479 kts | 150° |
| 2026-04-24 14:45 | 52.03419 | -1.63818 | 26843 ft | 469 kts | 150° |
| 2026-04-24 14:45 | 52.00716 | -1.60949 | 25668 ft | 459 kts | 150° |
| 2026-04-24 14:45 | 51.98062 | -1.58140 | 24494 ft | 450 kts | 150° |
| 2026-04-24 14:46 | 51.95452 | -1.55383 | 23297 ft | 442 kts | 150° |
| 2026-04-24 14:46 | 51.92941 | -1.52736 | 22184 ft | 430 kts | 149° |
| 2026-04-24 14:46 | 51.90460 | -1.50126 | 21089 ft | 418 kts | 149° |
| 2026-04-24 14:46 | 51.88048 | -1.47593 | 20038 ft | 407 kts | 149° |
| 2026-04-24 14:47 | 51.85707 | -1.45138 | 19062 ft | 395 kts | 148° |
| 2026-04-24 14:47 | 51.83423 | -1.42752 | 17999 ft | 384 kts | 148° |
| 2026-04-24 14:47 | 51.81227 | -1.40455 | 16782 ft | 378 kts | 148° |
| 2026-04-24 14:47 | 51.79055 | -1.38179 | 16036 ft | 361 kts | 148° |
| 2026-04-24 14:48 | 51.77031 | -1.36059 | 15630 ft | 343 kts | 148° |
| 2026-04-24 14:48 | 51.75016 | -1.33953 | 15418 ft | 345 kts | 148° |
| 2026-04-24 14:48 | 51.73023 | -1.31870 | 14810 ft | 346 kts | 148° |
| 2026-04-24 14:48 | 51.71004 | -1.29761 | 14389 ft | 345 kts | 148° |
| 2026-04-24 14:49 | 51.68984 | -1.27651 | 14255 ft | 346 kts | 148° |
| 2026-04-24 14:49 | 51.66975 | -1.25558 | 14135 ft | 344 kts | 148° |
| 2026-04-24 14:49 | 51.64952 | -1.23450 | 13999 ft | 344 kts | 148° |
| 2026-04-24 14:49 | 51.62928 | -1.21348 | 13865 ft | 345 kts | 148° |
| 2026-04-24 14:50 | 51.60907 | -1.19252 | 13716 ft | 344 kts | 148° |
| 2026-04-24 14:50 | 51.58924 | -1.17196 | 13560 ft | 341 kts | 148° |
| 2026-04-24 14:50 | 51.56947 | -1.15147 | 13434 ft | 340 kts | 148° |
| 2026-04-24 14:50 | 51.54981 | -1.13112 | 13299 ft | 341 kts | 148° |
| 2026-04-24 14:51 | 51.52988 | -1.11053 | 13161 ft | 340 kts | 148° |
| 2026-04-24 14:51 | 51.51000 | -1.08999 | 13031 ft | 338 kts | 148° |
| 2026-04-24 14:51 | 51.49038 | -1.06980 | 12896 ft | 338 kts | 148° |
| 2026-04-24 14:51 | 51.47058 | -1.04943 | 12763 ft | 337 kts | 148° |
| 2026-04-24 14:52 | 51.45128 | -1.02953 | 12629 ft | 336 kts | 148° |
| 2026-04-24 14:52 | 51.43114 | -1.00881 | 12489 ft | 336 kts | 148° |
| 2026-04-24 14:52 | 51.41144 | -0.98857 | 12359 ft | 336 kts | 148° |
| 2026-04-24 14:52 | 51.39177 | -0.96836 | 12233 ft | 335 kts | 148° |
| 2026-04-24 14:53 | 51.37216 | -0.94825 | 12090 ft | 334 kts | 148° |
| 2026-04-24 14:53 | 51.35252 | -0.92814 | 11971 ft | 334 kts | 148° |
| 2026-04-24 14:53 | 51.33320 | -0.90835 | 11840 ft | 334 kts | 148° |
| 2026-04-24 14:53 | 51.31749 | -0.89227 | 11736 ft | 332 kts | 148° |
| 2026-04-24 14:54 | 51.29798 | -0.87232 | 11614 ft | 332 kts | 148° |
| 2026-04-24 14:54 | 51.27854 | -0.85253 | 11483 ft | 330 kts | 148° |
| 2026-04-24 14:54 | 51.25919 | -0.83287 | 11365 ft | 331 kts | 148° |
| 2026-04-24 14:54 | 51.23977 | -0.81314 | 11232 ft | 330 kts | 148° |
| 2026-04-24 14:55 | 51.22759 | -0.80076 | 11156 ft | 331 kts | 148° |
| 2026-04-24 14:55 | 51.20160 | -0.77436 | 11002 ft | 325 kts | 148° |
| 2026-04-24 14:55 | 51.18280 | -0.75528 | 10908 ft | 312 kts | 148° |
| 2026-04-24 14:55 | 51.16486 | -0.73711 | 10797 ft | 298 kts | 148° |
| 2026-04-24 14:56 | 51.14825 | -0.72030 | 10572 ft | 287 kts | 148° |
| 2026-04-24 14:56 | 51.13169 | -0.70351 | 10406 ft | 275 kts | 147° |
| 2026-04-24 14:56 | 51.11601 | -0.68760 | 10319 ft | 270 kts | 147° |
| 2026-04-24 14:56 | 51.09982 | -0.67124 | 10212 ft | 281 kts | 148° |
| 2026-04-24 14:57 | 51.08313 | -0.65443 | 10107 ft | 284 kts | 148° |
| 2026-04-24 14:57 | 51.06663 | -0.63750 | 9990 ft | 280 kts | 144° |
| 2026-04-24 14:57 | 51.05266 | -0.61621 | 9881 ft | 279 kts | 129° |
| 2026-04-24 14:57 | 51.04264 | -0.58968 | 9767 ft | 281 kts | 117° |
| 2026-04-24 14:58 | 51.03410 | -0.56187 | 9649 ft | 279 kts | 117° |
| 2026-04-24 14:58 | 51.02560 | -0.53434 | 9538 ft | 279 kts | 117° |
| 2026-04-24 14:58 | 51.01704 | -0.50689 | 9430 ft | 279 kts | 117° |
| 2026-04-24 14:58 | 51.00841 | -0.47934 | 9308 ft | 277 kts | 117° |
| 2026-04-24 14:59 | 50.99981 | -0.45195 | 9204 ft | 278 kts | 117° |
| 2026-04-24 14:59 | 50.99154 | -0.42575 | 9102 ft | 277 kts | 117° |
| 2026-04-24 14:59 | 50.98305 | -0.39888 | 8999 ft | 277 kts | 117° |
| 2026-04-24 14:59 | 50.97454 | -0.37200 | 8818 ft | 279 kts | 117° |
| 2026-04-24 15:00 | 50.96692 | -0.34788 | 8597 ft | 278 kts | 117° |
| 2026-04-24 15:00 | 50.95834 | -0.32070 | 8392 ft | 275 kts | 117° |
| 2026-04-24 15:00 | 50.94976 | -0.29356 | 8165 ft | 275 kts | 117° |
| 2026-04-24 15:01 | 50.94182 | -0.26850 | 7979 ft | 270 kts | 117° |
| 2026-04-24 15:01 | 50.93339 | -0.24188 | 7761 ft | 269 kts | 117° |
| 2026-04-24 15:01 | 50.92497 | -0.21524 | 7534 ft | 272 kts | 117° |
| 2026-04-24 15:01 | 50.91660 | -0.18886 | 7361 ft | 268 kts | 117° |
| 2026-04-24 15:02 | 50.90824 | -0.16263 | 7199 ft | 261 kts | 117° |
| 2026-04-24 15:02 | 50.90021 | -0.13745 | 7114 ft | 249 kts | 117° |
| 2026-04-24 15:02 | 50.89264 | -0.11372 | 6971 ft | 240 kts | 117° |
| 2026-04-24 15:02 | 50.88513 | -0.09018 | 6680 ft | 238 kts | 116° |
| 2026-04-24 15:03 | 50.88144 | -0.07338 | 6445 ft | 238 kts | 99° |
| 2026-04-24 15:03 | 50.88565 | -0.04004 | 5996 ft | 239 kts | 59° |
| 2026-04-24 15:03 | 50.89786 | -0.02241 | 5694 ft | 241 kts | 28° |
| 2026-04-24 15:03 | 50.91420 | -0.01707 | 5388 ft | 245 kts | 358° |
| 2026-04-24 15:04 | 50.92860 | -0.02366 | 5273 ft | 242 kts | 338° |
| 2026-04-24 15:04 | 50.94314 | -0.03643 | 5159 ft | 243 kts | 328° |
| 2026-04-24 15:04 | 50.95573 | -0.05479 | 5011 ft | 252 kts | 310° |
| 2026-04-24 15:04 | 50.96486 | -0.07831 | 4845 ft | 250 kts | 296° |
| 2026-04-24 15:05 | 50.97109 | -0.10391 | 4642 ft | 247 kts | 289° |
| 2026-04-24 15:05 | 50.97565 | -0.12947 | 4457 ft | 243 kts | 284° |
| 2026-04-24 15:05 | 50.97965 | -0.15588 | 4276 ft | 246 kts | 284° |
| 2026-04-24 15:05 | 50.98350 | -0.18205 | 3960 ft | 245 kts | 284° |
| 2026-04-24 15:06 | 50.98751 | -0.20835 | 3576 ft | 244 kts | 285° |
| 2026-04-24 15:06 | 50.99168 | -0.23459 | 3248 ft | 245 kts | 285° |
| 2026-04-24 15:06 | 50.99583 | -0.26033 | 3053 ft | 236 kts | 285° |
| 2026-04-24 15:06 | 50.99994 | -0.28484 | 3005 ft | 235 kts | 287° |
| 2026-04-24 15:07 | 51.00613 | -0.30995 | 3008 ft | 248 kts | 295° |
| 2026-04-24 15:07 | 51.01333 | -0.33480 | 2994 ft | 241 kts | 296° |
| 2026-04-24 15:07 | 51.02024 | -0.35875 | 3006 ft | 241 kts | 296° |
| 2026-04-24 15:07 | 51.02687 | -0.38202 | 2988 ft | 241 kts | 296° |
| 2026-04-24 15:08 | 51.03375 | -0.40604 | 2994 ft | 232 kts | 296° |
| 2026-04-24 15:08 | 51.04014 | -0.42874 | 3005 ft | 220 kts | 295° |
| 2026-04-24 15:08 | 51.04626 | -0.45057 | 2990 ft | 212 kts | 296° |
| 2026-04-24 15:08 | 51.05235 | -0.47134 | 2983 ft | 201 kts | 305° |
| 2026-04-24 15:09 | 51.06233 | -0.48478 | 2986 ft | 187 kts | 344° |
| 2026-04-24 15:09 | 51.07523 | -0.48553 | 2983 ft | 188 kts | 22° |
| 2026-04-24 15:09 | 51.08577 | -0.47558 | 2987 ft | 180 kts | 40° |
| 2026-04-24 15:09 | 51.09549 | -0.46384 | 2989 ft | 174 kts | 41° |
| 2026-04-24 15:10 | 51.10508 | -0.45196 | 2987 ft | 178 kts | 47° |
| 2026-04-24 15:10 | 51.11230 | -0.43609 | 2996 ft | 179 kts | 66° |
| 2026-04-24 15:10 | 51.11641 | -0.41759 | 2935 ft | 178 kts | 77° |
| 2026-04-24 15:10 | 51.11933 | -0.39816 | 2682 ft | 182 kts | 77° |
| 2026-04-24 15:11 | 51.12215 | -0.37834 | 2427 ft | 188 kts | 78° |
| 2026-04-24 15:11 | 51.12498 | -0.35791 | 2192 ft | 195 kts | 77° |
| 2026-04-24 15:11 | 51.12791 | -0.33693 | 1917 ft | 191 kts | 78° |
| 2026-04-24 15:11 | 51.13057 | -0.31765 | 1681 ft | 172 kts | 78° |
| 2026-04-24 15:12 | 51.13289 | -0.30108 | 1473 ft | 141 kts | 78° |
| 2026-04-24 15:12 | 51.13666 | -0.27355 | 1103 ft | 128 kts | 76° |
| 2026-04-24 15:12 | 51.13856 | -0.26003 | 910 ft | 122 kts | 78° |
| 2026-04-24 15:13 | 51.14035 | -0.24677 | 765 ft | 127 kts | 77° |
| 2026-04-24 15:13 | 51.14228 | -0.23284 | 586 ft | 130 kts | 77° |
| 2026-04-24 15:13 | 51.14415 | -0.21944 | 402 ft | 120 kts | 77° |
| 2026-04-24 15:13 | 51.14591 | -0.20625 | 269 ft | 120 kts | 77° |
| 2026-04-24 15:14 | 51.14753 | -0.19451 | 210 ft | 95 kts | 77° |
| 2026-04-24 15:14 | 51.14831 | -0.18910 | 208 ft | 34 kts | 78° |
| 2026-04-24 15:14 | 51.14893 | -0.18613 | 213 ft | 19 kts | 52° |
| 2026-04-24 15:14 | 51.14967 | -0.18460 | 204 ft | 15 kts | 51° |
| 2026-04-24 15:15 | 51.15020 | -0.18353 | 203 ft | 10 kts | 52° |
| 2026-04-24 15:15 | 51.15073 | -0.18247 | 209 ft | 15 kts | 51° |
| 2026-04-24 15:15 | 51.15116 | -0.18161 | 212 ft | 4 kts | 58° |
| 2026-04-24 15:15 | 51.15139 | -0.18101 | 211 ft | 9 kts | 58° |
| 2026-04-24 15:16 | 51.15159 | -0.18075 | 210 ft | 0 kts | 19° |
| 2026-04-24 15:16 | 51.15168 | -0.18071 | 208 ft | 5 kts | 12° |
| 2026-04-24 15:16 | 51.15211 | -0.18082 | 206 ft | 14 kts | 351° |
| 2026-04-24 15:17 | 51.15364 | -0.18138 | 212 ft | 17 kts | 348° |
| 2026-04-24 15:17 | 51.15418 | -0.18156 | 203 ft | 13 kts | 348° |
| 2026-04-24 15:17 | 51.15520 | -0.18200 | 205 ft | 1 kts | 348° |
| 2026-04-24 15:17 | 51.15555 | -0.18212 | 209 ft | 9 kts | 348° |
| 2026-04-24 15:18 | 51.15583 | -0.18222 | 203 ft | 1 kts | 348° |
| 2026-04-24 15:18 | 51.15614 | -0.18232 | 209 ft | 8 kts | 348° |
| 2026-04-24 15:18 | 51.15661 | -0.18211 | 207 ft | 4 kts | 45° |
| 2026-04-24 15:18 | 51.15684 | -0.18178 | 207 ft | 5 kts | 36° |
| 2026-04-24 15:19 | 51.15713 | -0.18167 | 205 ft | 4 kts | 355° |
| 2026-04-24 15:19 | 51.15747 | -0.18154 | 207 ft | 7 kts | 39° |
| 2026-04-24 15:19 | 51.15773 | -0.18079 | 212 ft | 7 kts | 45° |
| 2026-04-24 15:19 | 51.15803 | -0.18033 | 211 ft | 6 kts | 72° |
| 2026-04-24 15:20 | 51.15813 | -0.17969 | 207 ft | 5 kts | 77° |
| 2026-04-24 15:20 | 51.15816 | -0.17942 | 203 ft | 0 kts | 77° |
| 2026-04-24 15:20 | 51.15817 | -0.17939 | 203 ft | 0 kts | 77° |